sensor_id;sensor_type;location;lat;lon;timestamp;P1;durP1;ratioP1;P2;durP2;ratioP2
65037;SDS011;51605;47.040;15.294;2023-01-23T00:01:51;1.80;;;1.27;;
65037;SDS011;51605;47.040;15.294;2023-01-23T00:04:17;2.45;;;1.35;;
65037;SDS011;51605;47.040;15.294;2023-01-23T00:06:43;1.40;;;1.10;;
65037;SDS011;51605;47.040;15.294;2023-01-23T00:09:08;1.83;;;1.25;;
65037;SDS011;51605;47.040;15.294;2023-01-23T00:11:34;1.30;;;1.10;;
65037;SDS011;51605;47.040;15.294;2023-01-23T00:14:00;1.52;;;1.10;;
65037;SDS011;51605;47.040;15.294;2023-01-23T00:16:28;1.60;;;1.20;;
65037;SDS011;51605;47.040;15.294;2023-01-23T00:18:55;1.65;;;1.10;;
65037;SDS011;51605;47.040;15.294;2023-01-23T00:21:22;1.33;;;1.08;;
65037;SDS011;51605;47.040;15.294;2023-01-23T00:23:50;1.33;;;1.10;;
65037;SDS011;51605;47.040;15.294;2023-01-23T00:26:18;1.60;;;1.30;;
65037;SDS011;51605;47.040;15.294;2023-01-23T00:28:48;1.92;;;1.10;;
65037;SDS011;51605;47.040;15.294;2023-01-23T00:33:44;1.45;;;1.10;;
65037;SDS011;51605;47.040;15.294;2023-01-23T00:36:11;1.50;;;1.25;;
65037;SDS011;51605;47.040;15.294;2023-01-23T00:38:38;1.48;;;1.10;;
65037;SDS011;51605;47.040;15.294;2023-01-23T00:41:04;1.58;;;1.20;;
65037;SDS011;51605;47.040;15.294;2023-01-23T00:43:30;1.40;;;1.10;;
65037;SDS011;51605;47.040;15.294;2023-01-23T00:45:56;1.77;;;1.10;;
65037;SDS011;51605;47.040;15.294;2023-01-23T00:48:22;1.35;;;1.10;;
65037;SDS011;51605;47.040;15.294;2023-01-23T00:50:48;1.80;;;1.10;;
65037;SDS011;51605;47.040;15.294;2023-01-23T00:53:14;1.67;;;1.23;;
65037;SDS011;51605;47.040;15.294;2023-01-23T00:55:39;1.17;;;1.00;;
65037;SDS011;51605;47.040;15.294;2023-01-23T00:58:05;1.55;;;1.17;;
65037;SDS011;51605;47.040;15.294;2023-01-23T01:00:32;1.25;;;1.15;;
65037;SDS011;51605;47.040;15.294;2023-01-23T01:02:58;1.60;;;1.10;;
65037;SDS011;51605;47.040;15.294;2023-01-23T01:05:24;1.30;;;1.00;;
65037;SDS011;51605;47.040;15.294;2023-01-23T01:07:49;1.45;;;1.20;;
65037;SDS011;51605;47.040;15.294;2023-01-23T01:10:15;2.22;;;1.05;;
65037;SDS011;51605;47.040;15.294;2023-01-23T01:12:41;1.55;;;1.10;;
65037;SDS011;51605;47.040;15.294;2023-01-23T01:15:07;1.30;;;1.02;;
65037;SDS011;51605;47.040;15.294;2023-01-23T01:17:34;1.30;;;1.10;;
65037;SDS011;51605;47.040;15.294;2023-01-23T01:20:02;1.10;;;0.90;;
65037;SDS011;51605;47.040;15.294;2023-01-23T01:22:29;1.70;;;1.17;;
65037;SDS011;51605;47.040;15.294;2023-01-23T01:24:55;1.60;;;1.10;;
65037;SDS011;51605;47.040;15.294;2023-01-23T01:27:21;1.13;;;1.00;;
65037;SDS011;51605;47.040;15.294;2023-01-23T01:29:47;1.02;;;0.93;;
65037;SDS011;51605;47.040;15.294;2023-01-23T01:32:13;1.52;;;1.20;;
65037;SDS011;51605;47.040;15.294;2023-01-23T01:34:38;1.13;;;1.02;;
65037;SDS011;51605;47.040;15.294;2023-01-23T01:37:04;1.50;;;1.10;;
65037;SDS011;51605;47.040;15.294;2023-01-23T01:39:30;2.05;;;1.25;;
65037;SDS011;51605;47.040;15.294;2023-01-23T01:41:55;1.58;;;1.10;;
65037;SDS011;51605;47.040;15.294;2023-01-23T01:44:22;1.40;;;1.20;;
65037;SDS011;51605;47.040;15.294;2023-01-23T01:46:48;1.35;;;1.10;;
65037;SDS011;51605;47.040;15.294;2023-01-23T01:49:29;1.08;;;0.98;;
65037;SDS011;51605;47.040;15.294;2023-01-23T01:54:35;1.10;;;1.00;;
65037;SDS011;51605;47.040;15.294;2023-01-23T01:57:27;2.17;;;1.25;;
65037;SDS011;51605;47.040;15.294;2023-01-23T02:02:44;1.10;;;1.00;;
65037;SDS011;51605;47.040;15.294;2023-01-23T02:05:23;1.88;;;1.20;;
65037;SDS011;51605;47.040;15.294;2023-01-23T02:07:55;2.33;;;1.10;;
65037;SDS011;51605;47.040;15.294;2023-01-23T02:10:30;1.27;;;1.10;;
65037;SDS011;51605;47.040;15.294;2023-01-23T02:15:46;1.10;;;1.00;;
65037;SDS011;51605;47.040;15.294;2023-01-23T02:18:12;1.10;;;0.93;;
65037;SDS011;51605;47.040;15.294;2023-01-23T02:20:37;1.42;;;1.10;;
65037;SDS011;51605;47.040;15.294;2023-01-23T02:28:10;1.05;;;0.95;;
65037;SDS011;51605;47.040;15.294;2023-01-23T02:30:37;1.35;;;1.00;;
65037;SDS011;51605;47.040;15.294;2023-01-23T02:33:08;1.02;;;0.90;;
65037;SDS011;51605;47.040;15.294;2023-01-23T02:35:35;1.40;;;1.00;;
65037;SDS011;51605;47.040;15.294;2023-01-23T02:38:02;1.13;;;1.02;;
65037;SDS011;51605;47.040;15.294;2023-01-23T02:40:30;1.20;;;1.00;;
65037;SDS011;51605;47.040;15.294;2023-01-23T02:43:03;1.10;;;1.00;;
65037;SDS011;51605;47.040;15.294;2023-01-23T02:45:30;1.30;;;1.08;;
65037;SDS011;51605;47.040;15.294;2023-01-23T02:47:56;1.48;;;1.00;;
65037;SDS011;51605;47.040;15.294;2023-01-23T02:50:22;1.08;;;0.98;;
65037;SDS011;51605;47.040;15.294;2023-01-23T02:52:48;1.40;;;1.10;;
65037;SDS011;51605;47.040;15.294;2023-01-23T02:55:15;1.10;;;0.98;;
65037;SDS011;51605;47.040;15.294;2023-01-23T02:57:41;1.10;;;0.90;;
65037;SDS011;51605;47.040;15.294;2023-01-23T03:00:09;1.48;;;1.00;;
65037;SDS011;51605;47.040;15.294;2023-01-23T03:02:44;1.10;;;0.90;;
65037;SDS011;51605;47.040;15.294;2023-01-23T03:05:12;0.88;;;0.80;;
65037;SDS011;51605;47.040;15.294;2023-01-23T03:07:38;1.10;;;1.00;;
65037;SDS011;51605;47.040;15.294;2023-01-23T03:10:04;1.60;;;1.00;;
65037;SDS011;51605;47.040;15.294;2023-01-23T03:12:31;1.00;;;0.90;;
65037;SDS011;51605;47.040;15.294;2023-01-23T03:14:57;1.08;;;0.90;;
65037;SDS011;51605;47.040;15.294;2023-01-23T03:17:23;1.52;;;1.10;;
65037;SDS011;51605;47.040;15.294;2023-01-23T03:19:49;1.40;;;1.17;;
65037;SDS011;51605;47.040;15.294;2023-01-23T03:22:15;1.25;;;0.95;;
65037;SDS011;51605;47.040;15.294;2023-01-23T03:24:41;1.10;;;0.90;;
65037;SDS011;51605;47.040;15.294;2023-01-23T03:27:07;0.98;;;0.90;;
65037;SDS011;51605;47.040;15.294;2023-01-23T03:29:32;1.42;;;1.00;;
65037;SDS011;51605;47.040;15.294;2023-01-23T03:32:16;1.10;;;1.00;;
65037;SDS011;51605;47.040;15.294;2023-01-23T03:34:42;0.85;;;0.80;;
65037;SDS011;51605;47.040;15.294;2023-01-23T03:37:09;1.10;;;0.83;;
65037;SDS011;51605;47.040;15.294;2023-01-23T03:39:36;1.15;;;0.93;;
65037;SDS011;51605;47.040;15.294;2023-01-23T03:42:20;0.82;;;0.82;;
65037;SDS011;51605;47.040;15.294;2023-01-23T03:44:47;1.15;;;0.98;;
65037;SDS011;51605;47.040;15.294;2023-01-23T03:47:16;1.05;;;0.90;;
65037;SDS011;51605;47.040;15.294;2023-01-23T03:49:41;1.00;;;0.90;;
65037;SDS011;51605;47.040;15.294;2023-01-23T03:52:07;1.08;;;0.90;;
65037;SDS011;51605;47.040;15.294;2023-01-23T03:54:33;1.40;;;1.00;;
65037;SDS011;51605;47.040;15.294;2023-01-23T03:56:58;0.98;;;0.88;;
65037;SDS011;51605;47.040;15.294;2023-01-23T03:59:24;1.23;;;1.00;;
65037;SDS011;51605;47.040;15.294;2023-01-23T04:01:50;1.10;;;0.95;;
65037;SDS011;51605;47.040;15.294;2023-01-23T04:04:15;0.90;;;0.90;;
65037;SDS011;51605;47.040;15.294;2023-01-23T04:06:41;1.20;;;0.98;;
65037;SDS011;51605;47.040;15.294;2023-01-23T04:09:06;1.00;;;0.90;;
65037;SDS011;51605;47.040;15.294;2023-01-23T04:11:32;1.02;;;0.90;;
65037;SDS011;51605;47.040;15.294;2023-01-23T04:13:58;1.10;;;0.90;;
65037;SDS011;51605;47.040;15.294;2023-01-23T04:16:24;1.00;;;0.90;;
65037;SDS011;51605;47.040;15.294;2023-01-23T04:18:51;1.10;;;1.00;;
65037;SDS011;51605;47.040;15.294;2023-01-23T04:21:18;1.10;;;0.98;;
65037;SDS011;51605;47.040;15.294;2023-01-23T04:23:44;1.08;;;0.90;;
65037;SDS011;51605;47.040;15.294;2023-01-23T04:26:10;0.90;;;0.90;;
65037;SDS011;51605;47.040;15.294;2023-01-23T04:28:36;1.10;;;0.98;;
65037;SDS011;51605;47.040;15.294;2023-01-23T04:31:01;1.30;;;0.90;;
65037;SDS011;51605;47.040;15.294;2023-01-23T04:33:27;1.52;;;1.00;;
65037;SDS011;51605;47.040;15.294;2023-01-23T04:35:54;1.70;;;0.70;;
65037;SDS011;51605;47.040;15.294;2023-01-23T04:38:22;1.20;;;1.00;;
65037;SDS011;51605;47.040;15.294;2023-01-23T04:40:48;1.00;;;0.82;;
65037;SDS011;51605;47.040;15.294;2023-01-23T04:43:14;0.80;;;0.80;;
65037;SDS011;51605;47.040;15.294;2023-01-23T04:45:40;0.88;;;0.80;;
65037;SDS011;51605;47.040;15.294;2023-01-23T04:48:07;0.98;;;0.80;;
65037;SDS011;51605;47.040;15.294;2023-01-23T04:50:33;1.10;;;1.00;;
65037;SDS011;51605;47.040;15.294;2023-01-23T04:52:59;1.00;;;0.90;;
65037;SDS011;51605;47.040;15.294;2023-01-23T04:55:25;1.17;;;0.90;;
65037;SDS011;51605;47.040;15.294;2023-01-23T04:57:52;1.00;;;0.90;;
65037;SDS011;51605;47.040;15.294;2023-01-23T05:00:18;0.80;;;0.80;;
65037;SDS011;51605;47.040;15.294;2023-01-23T05:02:45;1.25;;;1.10;;
65037;SDS011;51605;47.040;15.294;2023-01-23T05:05:11;1.08;;;0.90;;
65037;SDS011;51605;47.040;15.294;2023-01-23T05:07:37;1.05;;;0.85;;
65037;SDS011;51605;47.040;15.294;2023-01-23T05:10:04;1.52;;;0.80;;
65037;SDS011;51605;47.040;15.294;2023-01-23T05:12:30;0.90;;;0.90;;
65037;SDS011;51605;47.040;15.294;2023-01-23T05:14:56;2.85;;;1.00;;
65037;SDS011;51605;47.040;15.294;2023-01-23T05:17:22;0.98;;;0.88;;
65037;SDS011;51605;47.040;15.294;2023-01-23T05:19:47;0.70;;;0.70;;
65037;SDS011;51605;47.040;15.294;2023-01-23T05:22:13;0.95;;;0.90;;
65037;SDS011;51605;47.040;15.294;2023-01-23T05:24:39;1.10;;;0.80;;
65037;SDS011;51605;47.040;15.294;2023-01-23T05:27:04;1.65;;;1.00;;
65037;SDS011;51605;47.040;15.294;2023-01-23T05:29:30;0.90;;;0.85;;
65037;SDS011;51605;47.040;15.294;2023-01-23T05:31:55;0.98;;;0.90;;
65037;SDS011;51605;47.040;15.294;2023-01-23T05:34:21;1.00;;;0.75;;
65037;SDS011;51605;47.040;15.294;2023-01-23T05:36:46;0.80;;;0.80;;
65037;SDS011;51605;47.040;15.294;2023-01-23T05:39:12;1.10;;;0.98;;
65037;SDS011;51605;47.040;15.294;2023-01-23T05:41:38;0.90;;;0.80;;
65037;SDS011;51605;47.040;15.294;2023-01-23T05:44:03;1.17;;;0.98;;
65037;SDS011;51605;47.040;15.294;2023-01-23T05:46:29;0.70;;;0.70;;
65037;SDS011;51605;47.040;15.294;2023-01-23T05:48:55;2.05;;;0.95;;
65037;SDS011;51605;47.040;15.294;2023-01-23T05:51:20;0.80;;;0.80;;
65037;SDS011;51605;47.040;15.294;2023-01-23T05:53:47;0.90;;;0.85;;
65037;SDS011;51605;47.040;15.294;2023-01-23T05:56:13;0.95;;;0.80;;
65037;SDS011;51605;47.040;15.294;2023-01-23T05:58:38;1.10;;;0.80;;
65037;SDS011;51605;47.040;15.294;2023-01-23T06:01:04;1.65;;;0.90;;
65037;SDS011;51605;47.040;15.294;2023-01-23T06:03:30;0.73;;;0.70;;
65037;SDS011;51605;47.040;15.294;2023-01-23T06:05:55;1.58;;;0.95;;
65037;SDS011;51605;47.040;15.294;2023-01-23T06:08:21;0.80;;;0.80;;
65037;SDS011;51605;47.040;15.294;2023-01-23T06:10:47;1.15;;;0.80;;
65037;SDS011;51605;47.040;15.294;2023-01-23T06:13:12;1.40;;;0.90;;
65037;SDS011;51605;47.040;15.294;2023-01-23T06:15:38;1.77;;;0.90;;
65037;SDS011;51605;47.040;15.294;2023-01-23T06:18:04;1.33;;;1.20;;
65037;SDS011;51605;47.040;15.294;2023-01-23T06:20:29;0.80;;;0.80;;
65037;SDS011;51605;47.040;15.294;2023-01-23T06:22:55;1.50;;;0.90;;
65037;SDS011;51605;47.040;15.294;2023-01-23T06:25:21;1.52;;;1.27;;
65037;SDS011;51605;47.040;15.294;2023-01-23T06:27:47;2.63;;;0.95;;
65037;SDS011;51605;47.040;15.294;2023-01-23T06:30:12;1.38;;;1.20;;
65037;SDS011;51605;47.040;15.294;2023-01-23T06:32:39;1.20;;;1.10;;
65037;SDS011;51605;47.040;15.294;2023-01-23T06:35:05;1.00;;;0.90;;
65037;SDS011;51605;47.040;15.294;2023-01-23T06:37:31;1.80;;;1.70;;
65037;SDS011;51605;47.040;15.294;2023-01-23T06:39:57;1.10;;;0.80;;
65037;SDS011;51605;47.040;15.294;2023-01-23T06:42:22;1.85;;;1.02;;
65037;SDS011;51605;47.040;15.294;2023-01-23T06:44:48;2.10;;;0.82;;
65037;SDS011;51605;47.040;15.294;2023-01-23T06:47:14;1.20;;;1.10;;
65037;SDS011;51605;47.040;15.294;2023-01-23T06:49:40;2.42;;;0.90;;
65037;SDS011;51605;47.040;15.294;2023-01-23T06:52:06;1.13;;;1.02;;
65037;SDS011;51605;47.040;15.294;2023-01-23T06:54:31;1.17;;;1.08;;
65037;SDS011;51605;47.040;15.294;2023-01-23T06:56:57;3.53;;;3.20;;
65037;SDS011;51605;47.040;15.294;2023-01-23T06:59:22;7.30;;;6.65;;
65037;SDS011;51605;47.040;15.294;2023-01-23T07:01:48;4.25;;;3.90;;
65037;SDS011;51605;47.040;15.294;2023-01-23T07:04:14;1.83;;;1.67;;
65037;SDS011;51605;47.040;15.294;2023-01-23T07:06:39;2.67;;;2.47;;
65037;SDS011;51605;47.040;15.294;2023-01-23T07:09:05;6.63;;;6.13;;
65037;SDS011;51605;47.040;15.294;2023-01-23T07:11:31;4.82;;;4.47;;
65037;SDS011;51605;47.040;15.294;2023-01-23T07:13:56;5.55;;;5.15;;
65037;SDS011;51605;47.040;15.294;2023-01-23T07:16:22;2.58;;;2.38;;
65037;SDS011;51605;47.040;15.294;2023-01-23T07:18:49;23.27;;;2.08;;
65037;SDS011;51605;47.040;15.294;2023-01-23T07:21:14;5.47;;;5.07;;
65037;SDS011;51605;47.040;15.294;2023-01-23T07:23:40;4.18;;;3.88;;
65037;SDS011;51605;47.040;15.294;2023-01-23T07:26:06;8.65;;;8.00;;
65037;SDS011;51605;47.040;15.294;2023-01-23T07:28:33;7.35;;;6.75;;
65037;SDS011;51605;47.040;15.294;2023-01-23T07:31:03;5.95;;;5.45;;
65037;SDS011;51605;47.040;15.294;2023-01-23T07:33:29;8.50;;;7.90;;
65037;SDS011;51605;47.040;15.294;2023-01-23T07:35:55;5.80;;;5.40;;
65037;SDS011;51605;47.040;15.294;2023-01-23T07:38:21;37.33;;;34.95;;
65037;SDS011;51605;47.040;15.294;2023-01-23T07:40:48;11.57;;;10.88;;
65037;SDS011;51605;47.040;15.294;2023-01-23T07:43:16;14.50;;;13.57;;
65037;SDS011;51605;47.040;15.294;2023-01-23T07:45:42;12.05;;;11.18;;
65037;SDS011;51605;47.040;15.294;2023-01-23T07:48:08;4.07;;;3.78;;
65037;SDS011;51605;47.040;15.294;2023-01-23T07:50:34;2.40;;;2.20;;
65037;SDS011;51605;47.040;15.294;2023-01-23T07:53:02;46.67;;;6.45;;
65037;SDS011;51605;47.040;15.294;2023-01-23T07:55:28;4.15;;;3.85;;
65037;SDS011;51605;47.040;15.294;2023-01-23T07:57:54;4.13;;;3.05;;
65037;SDS011;51605;47.040;15.294;2023-01-23T08:00:21;7.82;;;7.20;;
65037;SDS011;51605;47.040;15.294;2023-01-23T08:02:47;8.33;;;7.73;;
65037;SDS011;51605;47.040;15.294;2023-01-23T08:05:12;3.80;;;2.75;;
65037;SDS011;51605;47.040;15.294;2023-01-23T08:07:38;6.85;;;6.25;;
65037;SDS011;51605;47.040;15.294;2023-01-23T08:10:04;7.38;;;6.70;;
65037;SDS011;51605;47.040;15.294;2023-01-23T08:12:31;6.63;;;6.07;;
65037;SDS011;51605;47.040;15.294;2023-01-23T08:14:56;10.95;;;10.13;;
65037;SDS011;51605;47.040;15.294;2023-01-23T08:17:22;9.13;;;8.38;;
65037;SDS011;51605;47.040;15.294;2023-01-23T08:19:48;19.98;;;18.48;;
65037;SDS011;51605;47.040;15.294;2023-01-23T08:22:13;14.23;;;13.07;;
65037;SDS011;51605;47.040;15.294;2023-01-23T08:24:39;12.10;;;11.25;;
65037;SDS011;51605;47.040;15.294;2023-01-23T08:27:05;8.80;;;8.10;;
65037;SDS011;51605;47.040;15.294;2023-01-23T08:29:31;8.10;;;7.50;;
65037;SDS011;51605;47.040;15.294;2023-01-23T08:31:57;16.83;;;15.73;;
65037;SDS011;51605;47.040;15.294;2023-01-23T08:34:22;10.98;;;10.10;;
65037;SDS011;51605;47.040;15.294;2023-01-23T08:36:48;7.65;;;7.05;;
65037;SDS011;51605;47.040;15.294;2023-01-23T08:39:17;8.02;;;7.38;;
65037;SDS011;51605;47.040;15.294;2023-01-23T08:41:44;7.93;;;7.32;;
65037;SDS011;51605;47.040;15.294;2023-01-23T08:44:10;15.43;;;14.27;;
65037;SDS011;51605;47.040;15.294;2023-01-23T08:46:36;21.08;;;19.63;;
65037;SDS011;51605;47.040;15.294;2023-01-23T08:49:01;14.20;;;13.25;;
65037;SDS011;51605;47.040;15.294;2023-01-23T08:51:28;4.93;;;4.57;;
65037;SDS011;51605;47.040;15.294;2023-01-23T08:53:55;13.23;;;12.30;;
65037;SDS011;51605;47.040;15.294;2023-01-23T08:56:21;9.13;;;8.40;;
65037;SDS011;51605;47.040;15.294;2023-01-23T08:58:47;23.17;;;21.67;;
65037;SDS011;51605;47.040;15.294;2023-01-23T09:01:23;30.60;;;28.52;;
65037;SDS011;51605;47.040;15.294;2023-01-23T09:03:50;22.10;;;20.60;;
65037;SDS011;51605;47.040;15.294;2023-01-23T09:06:17;15.35;;;14.18;;
65037;SDS011;51605;47.040;15.294;2023-01-23T09:08:43;8.48;;;7.80;;
65037;SDS011;51605;47.040;15.294;2023-01-23T09:11:10;8.95;;;8.15;;
65037;SDS011;51605;47.040;15.294;2023-01-23T09:13:36;17.92;;;16.48;;
65037;SDS011;51605;47.040;15.294;2023-01-23T09:16:02;5.72;;;5.30;;
65037;SDS011;51605;47.040;15.294;2023-01-23T09:20:54;7.65;;;6.95;;
65037;SDS011;51605;47.040;15.294;2023-01-23T09:23:21;9.25;;;8.55;;
65037;SDS011;51605;47.040;15.294;2023-01-23T09:25:47;19.77;;;18.48;;
65037;SDS011;51605;47.040;15.294;2023-01-23T09:28:13;28.25;;;26.27;;
65037;SDS011;51605;47.040;15.294;2023-01-23T09:30:38;20.00;;;18.55;;
65037;SDS011;51605;47.040;15.294;2023-01-23T09:33:04;9.13;;;8.18;;
65037;SDS011;51605;47.040;15.294;2023-01-23T09:35:31;20.20;;;18.75;;
65037;SDS011;51605;47.040;15.294;2023-01-23T09:37:56;15.65;;;14.35;;
65037;SDS011;51605;47.040;15.294;2023-01-23T09:40:30;11.75;;;10.82;;
65037;SDS011;51605;47.040;15.294;2023-01-23T09:43:11;10.00;;;9.20;;
65037;SDS011;51605;47.040;15.294;2023-01-23T09:45:40;15.82;;;14.73;;
65037;SDS011;51605;47.040;15.294;2023-01-23T09:50:59;4.43;;;4.10;;
65037;SDS011;51605;47.040;15.294;2023-01-23T09:53:35;6.53;;;6.03;;
65037;SDS011;51605;47.040;15.294;2023-01-23T09:56:13;8.07;;;7.47;;
65037;SDS011;51605;47.040;15.294;2023-01-23T10:01:36;9.98;;;9.18;;
65037;SDS011;51605;47.040;15.294;2023-01-23T10:04:02;18.05;;;16.33;;
65037;SDS011;51605;47.040;15.294;2023-01-23T10:06:30;9.50;;;8.80;;
65037;SDS011;51605;47.040;15.294;2023-01-23T10:22:40;5.72;;;3.95;;
65037;SDS011;51605;47.040;15.294;2023-01-23T10:27:47;29.52;;;8.65;;
65037;SDS011;51605;47.040;15.294;2023-01-23T10:30:48;9.13;;;8.43;;
65037;SDS011;51605;47.040;15.294;2023-01-23T10:33:14;5.63;;;5.13;;
65037;SDS011;51605;47.040;15.294;2023-01-23T10:40:47;7.95;;;7.22;;
65037;SDS011;51605;47.040;15.294;2023-01-23T10:43:32;5.90;;;5.40;;
65037;SDS011;51605;47.040;15.294;2023-01-23T10:45:59;17.08;;;15.80;;
65037;SDS011;51605;47.040;15.294;2023-01-23T10:48:27;14.43;;;13.38;;
65037;SDS011;51605;47.040;15.294;2023-01-23T10:50:56;13.27;;;12.35;;
65037;SDS011;51605;47.040;15.294;2023-01-23T10:53:23;19.77;;;18.05;;
65037;SDS011;51605;47.040;15.294;2023-01-23T10:55:50;3.90;;;3.60;;
65037;SDS011;51605;47.040;15.294;2023-01-23T10:58:28;7.25;;;6.72;;
65037;SDS011;51605;47.040;15.294;2023-01-23T11:00:59;15.15;;;14.10;;
65037;SDS011;51605;47.040;15.294;2023-01-23T11:03:26;5.35;;;4.95;;
65037;SDS011;51605;47.040;15.294;2023-01-23T11:08:28;11.57;;;10.75;;
65037;SDS011;51605;47.040;15.294;2023-01-23T11:13:40;4.10;;;3.80;;
65037;SDS011;51605;47.040;15.294;2023-01-23T11:16:07;4.55;;;4.15;;
65037;SDS011;51605;47.040;15.294;2023-01-23T11:18:42;7.22;;;6.68;;
65037;SDS011;51605;47.040;15.294;2023-01-23T11:21:26;4.68;;;4.28;;
65037;SDS011;51605;47.040;15.294;2023-01-23T11:24:06;4.82;;;3.42;;
65037;SDS011;51605;47.040;15.294;2023-01-23T11:29:29;7.47;;;6.82;;
65037;SDS011;51605;47.040;15.294;2023-01-23T11:32:10;6.78;;;5.72;;
65037;SDS011;51605;47.040;15.294;2023-01-23T11:34:39;6.18;;;5.68;;
65037;SDS011;51605;47.040;15.294;2023-01-23T11:39:47;11.07;;;10.10;;
65037;SDS011;51605;47.040;15.294;2023-01-23T11:42:15;8.40;;;7.80;;
65037;SDS011;51605;47.040;15.294;2023-01-23T11:44:42;24.20;;;22.45;;
65037;SDS011;51605;47.040;15.294;2023-01-23T12:11:47;13.40;;;12.20;;
65037;SDS011;51605;47.040;15.294;2023-01-23T12:14:30;10.10;;;9.00;;
65037;SDS011;51605;47.040;15.294;2023-01-23T12:22:46;9.60;;;5.60;;
65037;SDS011;51605;47.040;15.294;2023-01-23T12:25:29;11.95;;;7.45;;
65037;SDS011;51605;47.040;15.294;2023-01-23T12:41:42;14.07;;;9.85;;
65037;SDS011;51605;47.040;15.294;2023-01-23T12:47:13;25.00;;;22.17;;
65037;SDS011;51605;47.040;15.294;2023-01-23T13:03:07;16.85;;;14.52;;
65037;SDS011;51605;47.040;15.294;2023-01-23T13:06:01;33.92;;;30.92;;
65037;SDS011;51605;47.040;15.294;2023-01-23T13:11:13;15.27;;;9.52;;
65037;SDS011;51605;47.040;15.294;2023-01-23T13:14:19;16.15;;;8.13;;
65037;SDS011;51605;47.040;15.294;2023-01-23T13:16:50;12.43;;;6.43;;
65037;SDS011;51605;47.040;15.294;2023-01-23T13:19:22;30.73;;;27.70;;
65037;SDS011;51605;47.040;15.294;2023-01-23T13:22:11;22.75;;;18.73;;
65037;SDS011;51605;47.040;15.294;2023-01-23T13:24:39;15.95;;;9.90;;
65037;SDS011;51605;47.040;15.294;2023-01-23T13:41:31;19.10;;;15.15;;
65037;SDS011;51605;47.040;15.294;2023-01-23T13:46:23;14.43;;;7.85;;
65037;SDS011;51605;47.040;15.294;2023-01-23T13:48:57;11.80;;;6.53;;
65037;SDS011;51605;47.040;15.294;2023-01-23T13:51:50;20.63;;;18.55;;
65037;SDS011;51605;47.040;15.294;2023-01-23T13:54:23;18.48;;;12.38;;
65037;SDS011;51605;47.040;15.294;2023-01-23T13:57:10;15.13;;;7.45;;
65037;SDS011;51605;47.040;15.294;2023-01-23T13:59:38;11.65;;;5.55;;
65037;SDS011;51605;47.040;15.294;2023-01-23T14:02:29;25.98;;;7.00;;
65037;SDS011;51605;47.040;15.294;2023-01-23T14:05:19;18.60;;;11.95;;
65037;SDS011;51605;47.040;15.294;2023-01-23T14:07:58;14.20;;;8.45;;
65037;SDS011;51605;47.040;15.294;2023-01-23T14:10:28;15.98;;;9.30;;
65037;SDS011;51605;47.040;15.294;2023-01-23T14:13:08;14.20;;;6.78;;
65037;SDS011;51605;47.040;15.294;2023-01-23T14:15:52;21.30;;;19.00;;
65037;SDS011;51605;47.040;15.294;2023-01-23T14:18:41;13.82;;;7.20;;
65037;SDS011;51605;47.040;15.294;2023-01-23T14:21:25;25.75;;;23.25;;
65037;SDS011;51605;47.040;15.294;2023-01-23T14:23:56;35.95;;;32.78;;
65037;SDS011;51605;47.040;15.294;2023-01-23T14:26:32;16.83;;;10.38;;
65037;SDS011;51605;47.040;15.294;2023-01-23T14:29:03;15.98;;;9.45;;
65037;SDS011;51605;47.040;15.294;2023-01-23T14:31:42;18.35;;;15.75;;
65037;SDS011;51605;47.040;15.294;2023-01-23T14:34:19;15.02;;;9.65;;
65037;SDS011;51605;47.040;15.294;2023-01-23T14:36:48;18.17;;;10.45;;
65037;SDS011;51605;47.040;15.294;2023-01-23T14:39:34;18.25;;;12.18;;
65037;SDS011;51605;47.040;15.294;2023-01-23T14:42:01;13.90;;;7.07;;
65037;SDS011;51605;47.040;15.294;2023-01-23T14:46:57;20.00;;;14.47;;
65037;SDS011;51605;47.040;15.294;2023-01-23T14:49:28;18.65;;;12.02;;
65037;SDS011;51605;47.040;15.294;2023-01-23T14:52:00;15.15;;;10.25;;
65037;SDS011;51605;47.040;15.294;2023-01-23T14:54:28;13.55;;;7.57;;
65037;SDS011;51605;47.040;15.294;2023-01-23T14:56:54;13.02;;;7.00;;
65037;SDS011;51605;47.040;15.294;2023-01-23T14:59:32;13.55;;;7.65;;
65037;SDS011;51605;47.040;15.294;2023-01-23T15:02:18;12.95;;;6.82;;
65037;SDS011;51605;47.040;15.294;2023-01-23T15:05:15;14.25;;;5.25;;
65037;SDS011;51605;47.040;15.294;2023-01-23T15:10:28;15.13;;;10.00;;
65037;SDS011;51605;47.040;15.294;2023-01-23T15:12:59;13.75;;;7.47;;
65037;SDS011;51605;47.040;15.294;2023-01-23T15:15:30;15.38;;;6.78;;
65037;SDS011;51605;47.040;15.294;2023-01-23T15:17:58;15.73;;;8.75;;
65037;SDS011;51605;47.040;15.294;2023-01-23T15:23:19;13.60;;;6.10;;
65037;SDS011;51605;47.040;15.294;2023-01-23T15:25:47;16.45;;;9.85;;
65037;SDS011;51605;47.040;15.294;2023-01-23T15:28:36;18.88;;;15.60;;
65037;SDS011;51605;47.040;15.294;2023-01-23T15:33:50;21.75;;;19.52;;
65037;SDS011;51605;47.040;15.294;2023-01-23T15:36:26;16.90;;;15.05;;
65037;SDS011;51605;47.040;15.294;2023-01-23T15:38:53;13.15;;;7.82;;
65037;SDS011;51605;47.040;15.294;2023-01-23T15:41:20;27.60;;;25.05;;
65037;SDS011;51605;47.040;15.294;2023-01-23T15:44:12;11.75;;;6.25;;
65037;SDS011;51605;47.040;15.294;2023-01-23T15:46:39;12.98;;;8.13;;
65037;SDS011;51605;47.040;15.294;2023-01-23T15:49:06;15.13;;;11.60;;
65037;SDS011;51605;47.040;15.294;2023-01-23T15:51:31;19.17;;;12.68;;
65037;SDS011;51605;47.040;15.294;2023-01-23T15:53:57;18.45;;;16.63;;
65037;SDS011;51605;47.040;15.294;2023-01-23T15:56:24;14.50;;;10.70;;
65037;SDS011;51605;47.040;15.294;2023-01-23T15:58:53;16.38;;;11.70;;
65037;SDS011;51605;47.040;15.294;2023-01-23T16:01:19;17.55;;;15.73;;
65037;SDS011;51605;47.040;15.294;2023-01-23T16:03:45;22.85;;;20.42;;
65037;SDS011;51605;47.040;15.294;2023-01-23T16:06:20;15.73;;;12.82;;
65037;SDS011;51605;47.040;15.294;2023-01-23T16:08:48;25.85;;;23.30;;
65037;SDS011;51605;47.040;15.294;2023-01-23T16:11:15;33.63;;;30.60;;
65037;SDS011;51605;47.040;15.294;2023-01-23T16:13:41;25.17;;;22.88;;
65037;SDS011;51605;47.040;15.294;2023-01-23T16:16:13;25.08;;;22.65;;
65037;SDS011;51605;47.040;15.294;2023-01-23T16:18:41;29.38;;;26.90;;
65037;SDS011;51605;47.040;15.294;2023-01-23T16:21:10;15.32;;;11.93;;
65037;SDS011;51605;47.040;15.294;2023-01-23T16:23:38;12.35;;;8.60;;
65037;SDS011;51605;47.040;15.294;2023-01-23T16:26:04;14.50;;;7.85;;
65037;SDS011;51605;47.040;15.294;2023-01-23T16:28:30;12.25;;;9.23;;
65037;SDS011;51605;47.040;15.294;2023-01-23T16:30:57;13.70;;;8.23;;
65037;SDS011;51605;47.040;15.294;2023-01-23T16:33:22;17.38;;;13.93;;
65037;SDS011;51605;47.040;15.294;2023-01-23T16:35:48;13.38;;;8.57;;
65037;SDS011;51605;47.040;15.294;2023-01-23T16:38:22;11.98;;;8.93;;
65037;SDS011;51605;47.040;15.294;2023-01-23T16:40:50;13.18;;;9.02;;
65037;SDS011;51605;47.040;15.294;2023-01-23T16:43:18;11.48;;;8.73;;
65037;SDS011;51605;47.040;15.294;2023-01-23T16:45:44;12.10;;;8.25;;
65037;SDS011;51605;47.040;15.294;2023-01-23T16:48:09;10.90;;;7.93;;
65037;SDS011;51605;47.040;15.294;2023-01-23T16:50:36;13.88;;;10.73;;
65037;SDS011;51605;47.040;15.294;2023-01-23T16:55:31;10.98;;;6.82;;
65037;SDS011;51605;47.040;15.294;2023-01-23T16:57:59;10.68;;;6.65;;
65037;SDS011;51605;47.040;15.294;2023-01-23T17:00:26;9.73;;;5.97;;
65037;SDS011;51605;47.040;15.294;2023-01-23T17:02:53;13.00;;;10.87;;
65037;SDS011;51605;47.040;15.294;2023-01-23T17:05:22;10.90;;;7.15;;